sensor_id;sensor_type;location;lat;lon;timestamp;temperature;humidity
44111;DHT22;29774;52.664;5.074;2022-11-12T00:00:23;6.30;89.00
44111;DHT22;29774;52.664;5.074;2022-11-12T00:02:49;6.30;89.50
44111;DHT22;29774;52.664;5.074;2022-11-12T00:05:14;6.50;90.20
44111;DHT22;29774;52.664;5.074;2022-11-12T00:07:40;6.70;90.70
44111;DHT22;29774;52.664;5.074;2022-11-12T00:10:06;6.70;90.20
44111;DHT22;29774;52.664;5.074;2022-11-12T00:12:32;6.70;90.70
44111;DHT22;29774;52.664;5.074;2022-11-12T00:14:57;6.70;90.50
44111;DHT22;29774;52.664;5.074;2022-11-12T00:17:23;6.50;90.20
44111;DHT22;29774;52.664;5.074;2022-11-12T00:19:48;6.10;89.80
44111;DHT22;29774;52.664;5.074;2022-11-12T00:22:14;6.20;90.70
44111;DHT22;29774;52.664;5.074;2022-11-12T00:24:39;6.20;90.70
44111;DHT22;29774;52.664;5.074;2022-11-12T00:27:05;6.50;89.80
44111;DHT22;29774;52.664;5.074;2022-11-12T00:29:31;6.30;89.90
44111;DHT22;29774;52.664;5.074;2022-11-12T00:31:56;6.00;89.70
44111;DHT22;29774;52.664;5.074;2022-11-12T00:34:22;5.80;89.80
44111;DHT22;29774;52.664;5.074;2022-11-12T00:36:47;5.90;90.30
44111;DHT22;29774;52.664;5.074;2022-11-12T00:39:13;5.90;90.50
44111;DHT22;29774;52.664;5.074;2022-11-12T00:41:39;5.80;90.60
44111;DHT22;29774;52.664;5.074;2022-11-12T00:44:04;6.10;91.20
44111;DHT22;29774;52.664;5.074;2022-11-12T00:46:30;6.00;91.00
44111;DHT22;29774;52.664;5.074;2022-11-12T00:48:55;6.10;91.30
44111;DHT22;29774;52.664;5.074;2022-11-12T00:51:21;6.10;91.30
44111;DHT22;29774;52.664;5.074;2022-11-12T00:53:48;6.00;91.10
44111;DHT22;29774;52.664;5.074;2022-11-12T00:56:14;6.00;91.10
44111;DHT22;29774;52.664;5.074;2022-11-12T00:58:39;9.80;94.60
44111;DHT22;29774;52.664;5.074;2022-11-12T01:01:11;8.20;85.70
44111;DHT22;29774;52.664;5.074;2022-11-12T01:03:39;6.70;87.10
44111;DHT22;29774;52.664;5.074;2022-11-12T01:06:06;6.80;90.10
44111;DHT22;29774;52.664;5.074;2022-11-12T01:08:33;7.30;87.50
44111;DHT22;29774;52.664;5.074;2022-11-12T01:11:21;6.80;88.80
44111;DHT22;29774;52.664;5.074;2022-11-12T01:13:55;6.50;89.20
44111;DHT22;29774;52.664;5.074;2022-11-12T01:16:22;6.70;91.20
44111;DHT22;29774;52.664;5.074;2022-11-12T01:18:52;6.30;90.30
44111;DHT22;29774;52.664;5.074;2022-11-12T01:21:20;6.70;91.50
44111;DHT22;29774;52.664;5.074;2022-11-12T01:23:46;6.60;91.30
44111;DHT22;29774;52.664;5.074;2022-11-12T01:26:14;7.80;92.50
44111;DHT22;29774;52.664;5.074;2022-11-12T01:28:42;8.60;92.00
44111;DHT22;29774;52.664;5.074;2022-11-12T01:31:19;8.30;91.00
44111;DHT22;29774;52.664;5.074;2022-11-12T01:33:47;7.90;90.20
44111;DHT22;29774;52.664;5.074;2022-11-12T01:36:14;7.70;91.20
44111;DHT22;29774;52.664;5.074;2022-11-12T01:38:41;8.10;92.40
44111;DHT22;29774;52.664;5.074;2022-11-12T01:41:10;11.20;92.30
44111;DHT22;29774;52.664;5.074;2022-11-12T01:43:36;10.00;86.50
44111;DHT22;29774;52.664;5.074;2022-11-12T01:46:06;9.10;88.20
44111;DHT22;29774;52.664;5.074;2022-11-12T01:48:44;9.20;89.40
44111;DHT22;29774;52.664;5.074;2022-11-12T01:51:11;8.70;90.50
44111;DHT22;29774;52.664;5.074;2022-11-12T01:53:41;8.80;91.30
44111;DHT22;29774;52.664;5.074;2022-11-12T01:56:08;9.10;91.00
44111;DHT22;29774;52.664;5.074;2022-11-12T01:58:35;9.60;90.90
44111;DHT22;29774;52.664;5.074;2022-11-12T02:01:02;9.70;90.50
44111;DHT22;29774;52.664;5.074;2022-11-12T02:03:28;9.20;90.50
44111;DHT22;29774;52.664;5.074;2022-11-12T02:05:58;9.50;91.50
44111;DHT22;29774;52.664;5.074;2022-11-12T02:08:25;9.50;91.00
44111;DHT22;29774;52.664;5.074;2022-11-12T02:10:52;9.10;91.00
44111;DHT22;29774;52.664;5.074;2022-11-12T02:13:18;9.00;91.70
44111;DHT22;29774;52.664;5.074;2022-11-12T02:16:04;9.10;92.00
44111;DHT22;29774;52.664;5.074;2022-11-12T02:18:31;9.20;91.80
44111;DHT22;29774;52.664;5.074;2022-11-12T02:20:58;9.20;91.60
44111;DHT22;29774;52.664;5.074;2022-11-12T02:23:27;9.10;92.20
44111;DHT22;29774;52.664;5.074;2022-11-12T02:25:52;9.40;92.60
44111;DHT22;29774;52.664;5.074;2022-11-12T02:28:18;9.20;92.20
44111;DHT22;29774;52.664;5.074;2022-11-12T02:30:48;9.20;92.50
44111;DHT22;29774;52.664;5.074;2022-11-12T02:33:14;9.20;92.70
44111;DHT22;29774;52.664;5.074;2022-11-12T02:35:40;9.20;92.90
44111;DHT22;29774;52.664;5.074;2022-11-12T02:38:07;9.10;93.00
44111;DHT22;29774;52.664;5.074;2022-11-12T02:40:32;9.20;93.30
44111;DHT22;29774;52.664;5.074;2022-11-12T02:42:58;9.40;93.40
44111;DHT22;29774;52.664;5.074;2022-11-12T02:45:25;9.50;93.10
44111;DHT22;29774;52.664;5.074;2022-11-12T02:47:51;9.40;92.90
44111;DHT22;29774;52.664;5.074;2022-11-12T02:50:17;10.50;93.70
44111;DHT22;29774;52.664;5.074;2022-11-12T02:52:42;11.40;89.00
44111;DHT22;29774;52.664;5.074;2022-11-12T02:55:09;10.30;88.40
44111;DHT22;29774;52.664;5.074;2022-11-12T02:57:36;9.80;90.40
44111;DHT22;29774;52.664;5.074;2022-11-12T03:00:08;9.70;91.40
44111;DHT22;29774;52.664;5.074;2022-11-12T03:02:33;9.50;92.10
44111;DHT22;29774;52.664;5.074;2022-11-12T03:04:59;9.60;92.70
44111;DHT22;29774;52.664;5.074;2022-11-12T03:07:24;9.70;92.70
44111;DHT22;29774;52.664;5.074;2022-11-12T03:09:50;9.70;92.70
44111;DHT22;29774;52.664;5.074;2022-11-12T03:12:16;9.60;92.50
44111;DHT22;29774;52.664;5.074;2022-11-12T03:14:42;9.80;93.00
44111;DHT22;29774;52.664;5.074;2022-11-12T03:17:07;10.40;93.10
44111;DHT22;29774;52.664;5.074;2022-11-12T03:19:33;10.10;91.40
44111;DHT22;29774;52.664;5.074;2022-11-12T03:21:58;10.80;90.80
44111;DHT22;29774;52.664;5.074;2022-11-12T03:24:24;10.70;90.00
44111;DHT22;29774;52.664;5.074;2022-11-12T03:26:49;10.70;88.40
44111;DHT22;29774;52.664;5.074;2022-11-12T03:29:15;10.70;89.40
44111;DHT22;29774;52.664;5.074;2022-11-12T03:31:41;11.10;88.50
44111;DHT22;29774;52.664;5.074;2022-11-12T03:34:06;10.40;88.70
44111;DHT22;29774;52.664;5.074;2022-11-12T03:36:32;10.30;90.90
44111;DHT22;29774;52.664;5.074;2022-11-12T03:38:57;10.40;90.10
44111;DHT22;29774;52.664;5.074;2022-11-12T03:41:23;10.00;90.80
44111;DHT22;29774;52.664;5.074;2022-11-12T03:43:48;9.80;91.60
44111;DHT22;29774;52.664;5.074;2022-11-12T03:46:14;9.70;92.20
44111;DHT22;29774;52.664;5.074;2022-11-12T03:48:40;9.60;92.60
44111;DHT22;29774;52.664;5.074;2022-11-12T03:51:05;9.60;92.90
44111;DHT22;29774;52.664;5.074;2022-11-12T03:53:31;11.70;89.30
44111;DHT22;29774;52.664;5.074;2022-11-12T03:55:56;11.10;89.00
44111;DHT22;29774;52.664;5.074;2022-11-12T03:58:22;11.30;89.40
44111;DHT22;29774;52.664;5.074;2022-11-12T04:00:47;10.80;87.20
44111;DHT22;29774;52.664;5.074;2022-11-12T04:03:13;10.00;90.20
44111;DHT22;29774;52.664;5.074;2022-11-12T04:05:39;10.60;90.70
44111;DHT22;29774;52.664;5.074;2022-11-12T04:08:23;11.30;88.60
44111;DHT22;29774;52.664;5.074;2022-11-12T04:11:09;11.00;88.00
44111;DHT22;29774;52.664;5.074;2022-11-12T04:13:37;10.80;86.60
44111;DHT22;29774;52.664;5.074;2022-11-12T04:16:06;9.90;89.80
44111;DHT22;29774;52.664;5.074;2022-11-12T04:18:52;10.70;90.10
44111;DHT22;29774;52.664;5.074;2022-11-12T04:21:39;10.70;90.10
44111;DHT22;29774;52.664;5.074;2022-11-12T04:24:25;11.10;87.10
44111;DHT22;29774;52.664;5.074;2022-11-12T04:27:22;11.10;86.60
44111;DHT22;29774;52.664;5.074;2022-11-12T04:29:49;9.80;88.90
44111;DHT22;29774;52.664;5.074;2022-11-12T04:32:39;9.60;90.60
44111;DHT22;29774;52.664;5.074;2022-11-12T04:35:08;9.20;91.70
44111;DHT22;29774;52.664;5.074;2022-11-12T04:37:34;9.10;92.30
44111;DHT22;29774;52.664;5.074;2022-11-12T04:40:24;9.20;92.50
44111;DHT22;29774;52.664;5.074;2022-11-12T04:43:14;9.10;92.50
44111;DHT22;29774;52.664;5.074;2022-11-12T04:45:59;9.00;92.30
44111;DHT22;29774;52.664;5.074;2022-11-12T04:48:26;9.20;92.90
44111;DHT22;29774;52.664;5.074;2022-11-12T04:50:57;10.20;92.00
44111;DHT22;29774;52.664;5.074;2022-11-12T04:53:24;10.40;91.10
44111;DHT22;29774;52.664;5.074;2022-11-12T04:55:51;9.50;89.10
44111;DHT22;29774;52.664;5.074;2022-11-12T04:58:16;8.90;90.80
44111;DHT22;29774;52.664;5.074;2022-11-12T05:00:42;8.70;91.80
44111;DHT22;29774;52.664;5.074;2022-11-12T05:03:07;8.70;92.30
44111;DHT22;29774;52.664;5.074;2022-11-12T05:05:33;10.30;92.80
44111;DHT22;29774;52.664;5.074;2022-11-12T05:08:00;12.00;86.70
44111;DHT22;29774;52.664;5.074;2022-11-12T05:10:25;11.20;83.20
44111;DHT22;29774;52.664;5.074;2022-11-12T05:12:51;9.60;87.40
44111;DHT22;29774;52.664;5.074;2022-11-12T05:15:17;9.30;90.10
44111;DHT22;29774;52.664;5.074;2022-11-12T05:17:43;8.90;90.50
44111;DHT22;29774;52.664;5.074;2022-11-12T05:20:13;8.70;91.70
44111;DHT22;29774;52.664;5.074;2022-11-12T05:22:38;9.80;90.80
44111;DHT22;29774;52.664;5.074;2022-11-12T05:25:05;9.80;90.20
44111;DHT22;29774;52.664;5.074;2022-11-12T05:27:31;11.60;84.90
44111;DHT22;29774;52.664;5.074;2022-11-12T05:29:57;10.80;85.20
44111;DHT22;29774;52.664;5.074;2022-11-12T05:32:22;11.90;85.10
44111;DHT22;29774;52.664;5.074;2022-11-12T05:34:48;11.50;80.70
44111;DHT22;29774;52.664;5.074;2022-11-12T05:37:14;11.30;82.70
44111;DHT22;29774;52.664;5.074;2022-11-12T05:39:40;10.40;85.60
44111;DHT22;29774;52.664;5.074;2022-11-12T05:42:05;10.60;87.40
44111;DHT22;29774;52.664;5.074;2022-11-12T05:44:31;10.00;86.30
44111;DHT22;29774;52.664;5.074;2022-11-12T05:46:57;9.40;89.50
44111;DHT22;29774;52.664;5.074;2022-11-12T05:49:22;9.00;89.70
44111;DHT22;29774;52.664;5.074;2022-11-12T05:51:48;9.20;89.80
44111;DHT22;29774;52.664;5.074;2022-11-12T05:54:13;9.20;89.70
44111;DHT22;29774;52.664;5.074;2022-11-12T05:56:39;9.50;89.90
44111;DHT22;29774;52.664;5.074;2022-11-12T05:59:08;9.10;89.50
44111;DHT22;29774;52.664;5.074;2022-11-12T06:01:34;9.70;88.70
44111;DHT22;29774;52.664;5.074;2022-11-12T06:04:09;9.00;89.50
44111;DHT22;29774;52.664;5.074;2022-11-12T06:06:35;8.60;91.00
44111;DHT22;29774;52.664;5.074;2022-11-12T06:09:01;8.70;92.00
44111;DHT22;29774;52.664;5.074;2022-11-12T06:11:27;8.50;92.20
44111;DHT22;29774;52.664;5.074;2022-11-12T06:13:52;9.00;92.30
44111;DHT22;29774;52.664;5.074;2022-11-12T06:16:18;9.20;91.10
44111;DHT22;29774;52.664;5.074;2022-11-12T06:18:43;9.40;90.70
44111;DHT22;29774;52.664;5.074;2022-11-12T06:21:10;9.10;90.00
44111;DHT22;29774;52.664;5.074;2022-11-12T06:23:45;9.50;91.70
44111;DHT22;29774;52.664;5.074;2022-11-12T06:26:12;8.90;90.80
44111;DHT22;29774;52.664;5.074;2022-11-12T06:28:38;8.60;91.20
44111;DHT22;29774;52.664;5.074;2022-11-12T06:31:04;8.40;91.90
44111;DHT22;29774;52.664;5.074;2022-11-12T06:33:29;8.30;92.40
44111;DHT22;29774;52.664;5.074;2022-11-12T06:36:00;8.30;92.80
44111;DHT22;29774;52.664;5.074;2022-11-12T06:38:38;8.90;92.30
44111;DHT22;29774;52.664;5.074;2022-11-12T06:41:05;8.80;92.40
44111;DHT22;29774;52.664;5.074;2022-11-12T06:43:32;8.50;92.20
44111;DHT22;29774;52.664;5.074;2022-11-12T06:46:03;8.30;92.70
44111;DHT22;29774;52.664;5.074;2022-11-12T06:48:29;8.20;93.10
44111;DHT22;29774;52.664;5.074;2022-11-12T06:50:56;8.20;93.30
44111;DHT22;29774;52.664;5.074;2022-11-12T06:53:23;8.20;93.50
44111;DHT22;29774;52.664;5.074;2022-11-12T06:55:49;8.20;93.60
44111;DHT22;29774;52.664;5.074;2022-11-12T06:58:14;8.20;93.70
44111;DHT22;29774;52.664;5.074;2022-11-12T07:00:40;8.40;93.40
44111;DHT22;29774;52.664;5.074;2022-11-12T07:03:06;8.20;93.30
44111;DHT22;29774;52.664;5.074;2022-11-12T07:05:38;8.10;93.50
44111;DHT22;29774;52.664;5.074;2022-11-12T07:08:05;8.20;93.60
44111;DHT22;29774;52.664;5.074;2022-11-12T07:10:30;8.20;93.60
44111;DHT22;29774;52.664;5.074;2022-11-12T07:12:56;8.20;93.70
44111;DHT22;29774;52.664;5.074;2022-11-12T07:15:21;8.20;93.80
44111;DHT22;29774;52.664;5.074;2022-11-12T07:17:47;8.20;93.90
44111;DHT22;29774;52.664;5.074;2022-11-12T07:20:13;8.20;94.00
44111;DHT22;29774;52.664;5.074;2022-11-12T07:22:38;8.50;94.20
44111;DHT22;29774;52.664;5.074;2022-11-12T07:25:04;8.50;93.80
44111;DHT22;29774;52.664;5.074;2022-11-12T07:27:30;8.40;93.50
44111;DHT22;29774;52.664;5.074;2022-11-12T07:29:56;8.40;93.30
44111;DHT22;29774;52.664;5.074;2022-11-12T07:32:22;8.60;93.60
44111;DHT22;29774;52.664;5.074;2022-11-12T07:34:47;8.90;93.30
44111;DHT22;29774;52.664;5.074;2022-11-12T07:37:14;8.70;92.70
44111;DHT22;29774;52.664;5.074;2022-11-12T07:39:40;9.20;93.10
44111;DHT22;29774;52.664;5.074;2022-11-12T07:42:05;9.30;91.40
44111;DHT22;29774;52.664;5.074;2022-11-12T07:44:31;10.30;90.10
44111;DHT22;29774;52.664;5.074;2022-11-12T07:46:56;9.40;89.10
44111;DHT22;29774;52.664;5.074;2022-11-12T07:49:22;8.80;90.80
44111;DHT22;29774;52.664;5.074;2022-11-12T07:51:47;9.20;91.10
44111;DHT22;29774;52.664;5.074;2022-11-12T07:54:13;11.20;90.60
44111;DHT22;29774;52.664;5.074;2022-11-12T07:56:39;11.40;85.90
44111;DHT22;29774;52.664;5.074;2022-11-12T07:59:04;12.40;83.30
44111;DHT22;29774;52.664;5.074;2022-11-12T08:01:39;12.60;79.50
44111;DHT22;29774;52.664;5.074;2022-11-12T08:04:07;12.20;78.00
44111;DHT22;29774;52.664;5.074;2022-11-12T08:06:34;10.10;85.00
44111;DHT22;29774;52.664;5.074;2022-11-12T08:09:02;11.70;83.10
44111;DHT22;29774;52.664;5.074;2022-11-12T08:11:29;11.90;85.30
44111;DHT22;29774;52.664;5.074;2022-11-12T08:13:54;10.30;84.80
44111;DHT22;29774;52.664;5.074;2022-11-12T08:16:20;11.50;84.70
44111;DHT22;29774;52.664;5.074;2022-11-12T08:18:46;11.00;82.60
44111;DHT22;29774;52.664;5.074;2022-11-12T08:21:14;10.60;84.10
44111;DHT22;29774;52.664;5.074;2022-11-12T08:23:40;9.50;88.20
44111;DHT22;29774;52.664;5.074;2022-11-12T08:26:10;9.10;90.20
44111;DHT22;29774;52.664;5.074;2022-11-12T08:28:36;9.00;91.30
44111;DHT22;29774;52.664;5.074;2022-11-12T08:31:06;9.00;91.90
44111;DHT22;29774;52.664;5.074;2022-11-12T08:33:33;9.20;91.70
44111;DHT22;29774;52.664;5.074;2022-11-12T08:36:02;9.00;92.00
44111;DHT22;29774;52.664;5.074;2022-11-12T08:38:28;9.10;92.60
44111;DHT22;29774;52.664;5.074;2022-11-12T08:40:54;9.10;92.40
44111;DHT22;29774;52.664;5.074;2022-11-12T08:43:19;9.00;92.70
44111;DHT22;29774;52.664;5.074;2022-11-12T08:45:45;9.00;92.90
44111;DHT22;29774;52.664;5.074;2022-11-12T08:48:13;9.20;93.40
44111;DHT22;29774;52.664;5.074;2022-11-12T08:50:39;10.80;90.30
44111;DHT22;29774;52.664;5.074;2022-11-12T08:53:08;11.70;86.90
44111;DHT22;29774;52.664;5.074;2022-11-12T08:55:35;11.20;84.30
44111;DHT22;29774;52.664;5.074;2022-11-12T08:58:01;12.00;83.60
44111;DHT22;29774;52.664;5.074;2022-11-12T09:00:29;11.80;84.00
44111;DHT22;29774;52.664;5.074;2022-11-12T09:02:55;12.70;81.00
44111;DHT22;29774;52.664;5.074;2022-11-12T09:05:20;11.00;84.40
44111;DHT22;29774;52.664;5.074;2022-11-12T09:07:46;11.20;88.40
44111;DHT22;29774;52.664;5.074;2022-11-12T09:10:12;13.40;79.20
44111;DHT22;29774;52.664;5.074;2022-11-12T09:12:37;13.70;77.30
44111;DHT22;29774;52.664;5.074;2022-11-12T09:15:04;13.30;77.40
44111;DHT22;29774;52.664;5.074;2022-11-12T09:17:30;11.20;83.50
44111;DHT22;29774;52.664;5.074;2022-11-12T09:19:56;12.20;84.30
44111;DHT22;29774;52.664;5.074;2022-11-12T09:22:22;11.50;83.30
44111;DHT22;29774;52.664;5.074;2022-11-12T09:24:48;10.70;87.40
44111;DHT22;29774;52.664;5.074;2022-11-12T09:27:13;12.80;81.50
44111;DHT22;29774;52.664;5.074;2022-11-12T09:29:39;12.40;82.50
44111;DHT22;29774;52.664;5.074;2022-11-12T09:32:04;12.10;82.10
44111;DHT22;29774;52.664;5.074;2022-11-12T09:34:30;11.00;86.10
44111;DHT22;29774;52.664;5.074;2022-11-12T09:36:56;10.50;88.10
44111;DHT22;29774;52.664;5.074;2022-11-12T09:39:21;10.30;89.50
44111;DHT22;29774;52.664;5.074;2022-11-12T09:41:47;11.20;89.20
44111;DHT22;29774;52.664;5.074;2022-11-12T09:44:19;11.50;84.70
44111;DHT22;29774;52.664;5.074;2022-11-12T09:46:53;10.60;87.70
44111;DHT22;29774;52.664;5.074;2022-11-12T09:49:28;10.50;90.00
44111;DHT22;29774;52.664;5.074;2022-11-12T09:52:00;10.60;89.00
44111;DHT22;29774;52.664;5.074;2022-11-12T09:54:30;10.80;88.50
44111;DHT22;29774;52.664;5.074;2022-11-12T09:56:55;10.20;89.90
44111;DHT22;29774;52.664;5.074;2022-11-12T09:59:25;10.00;90.80
44111;DHT22;29774;52.664;5.074;2022-11-12T10:04:48;12.70;82.30
44111;DHT22;29774;52.664;5.074;2022-11-12T10:10:14;11.10;86.10
44111;DHT22;29774;52.664;5.074;2022-11-12T10:24:00;10.50;89.90
44111;DHT22;29774;52.664;5.074;2022-11-12T10:26:26;11.00;91.50
44111;DHT22;29774;52.664;5.074;2022-11-12T10:29:13;10.90;89.80
44111;DHT22;29774;52.664;5.074;2022-11-12T10:31:42;10.20;90.00
44111;DHT22;29774;52.664;5.074;2022-11-12T10:34:19;10.10;91.30
44111;DHT22;29774;52.664;5.074;2022-11-12T10:40:46;10.20;90.60
44111;DHT22;29774;52.664;5.074;2022-11-12T10:45:45;10.40;90.70
44111;DHT22;29774;52.664;5.074;2022-11-12T10:48:28;10.70;88.80
44111;DHT22;29774;52.664;5.074;2022-11-12T10:50:57;10.60;90.20
44111;DHT22;29774;52.664;5.074;2022-11-12T10:53:33;10.50;88.90
44111;DHT22;29774;52.664;5.074;2022-11-12T10:56:04;12.70;87.20
44111;DHT22;29774;52.664;5.074;2022-11-12T10:58:30;14.20;76.60
44111;DHT22;29774;52.664;5.074;2022-11-12T11:01:03;14.40;74.80
44111;DHT22;29774;52.664;5.074;2022-11-12T11:03:43;12.60;79.10
44111;DHT22;29774;52.664;5.074;2022-11-12T11:08:46;10.60;88.10
44111;DHT22;29774;52.664;5.074;2022-11-12T11:13:41;10.40;89.10
44111;DHT22;29774;52.664;5.074;2022-11-12T11:16:15;10.40;89.20
44111;DHT22;29774;52.664;5.074;2022-11-12T11:18:45;10.30;89.80
44111;DHT22;29774;52.664;5.074;2022-11-12T11:24:30;10.20;89.40
44111;DHT22;29774;52.664;5.074;2022-11-12T11:32:34;11.60;87.50
44111;DHT22;29774;52.664;5.074;2022-11-12T11:46:19;12.40;80.10
44111;DHT22;29774;52.664;5.074;2022-11-12T11:51:54;11.30;83.90
44111;DHT22;29774;52.664;5.074;2022-11-12T11:57:28;12.00;84.60
44111;DHT22;29774;52.664;5.074;2022-11-12T12:00:20;13.40;79.80
44111;DHT22;29774;52.664;5.074;2022-11-12T12:03:02;13.10;77.70
44111;DHT22;29774;52.664;5.074;2022-11-12T12:05:46;12.30;78.80
44111;DHT22;29774;52.664;5.074;2022-11-12T12:08:45;11.80;80.90
44111;DHT22;29774;52.664;5.074;2022-11-12T12:11:21;11.00;84.00
44111;DHT22;29774;52.664;5.074;2022-11-12T12:19:31;10.40;87.10
44111;DHT22;29774;52.664;5.074;2022-11-12T12:22:03;10.50;87.20
44111;DHT22;29774;52.664;5.074;2022-11-12T12:24:44;10.90;85.00
44111;DHT22;29774;52.664;5.074;2022-11-12T12:27:24;10.60;86.50
44111;DHT22;29774;52.664;5.074;2022-11-12T12:29:56;10.50;86.20
44111;DHT22;29774;52.664;5.074;2022-11-12T12:32:28;10.60;86.00
44111;DHT22;29774;52.664;5.074;2022-11-12T12:35:13;10.60;86.80
44111;DHT22;29774;52.664;5.074;2022-11-12T12:37:56;10.50;86.60
44111;DHT22;29774;52.664;5.074;2022-11-12T12:40:46;10.90;86.00
44111;DHT22;29774;52.664;5.074;2022-11-12T12:45:43;10.70;86.40
44111;DHT22;29774;52.664;5.074;2022-11-12T12:48:19;10.70;86.80
44111;DHT22;29774;52.664;5.074;2022-11-12T12:50:47;10.70;86.40
44111;DHT22;29774;52.664;5.074;2022-11-12T12:53:30;10.90;86.30
44111;DHT22;29774;52.664;5.074;2022-11-12T12:56:04;10.90;86.30
44111;DHT22;29774;52.664;5.074;2022-11-12T12:58:42;10.90;86.00
44111;DHT22;29774;52.664;5.074;2022-11-12T13:03:52;11.00;86.50
44111;DHT22;29774;52.664;5.074;2022-11-12T13:08:56;11.00;85.60
44111;DHT22;29774;52.664;5.074;2022-11-12T13:25:22;11.30;85.00
44111;DHT22;29774;52.664;5.074;2022-11-12T13:38:10;11.40;85.40
44111;DHT22;29774;52.664;5.074;2022-11-12T13:41:05;11.50;85.50
44111;DHT22;29774;52.664;5.074;2022-11-12T13:43:45;11.50;84.70
44111;DHT22;29774;52.664;5.074;2022-11-12T13:46:28;11.40;85.30
44111;DHT22;29774;52.664;5.074;2022-11-12T13:49:05;11.40;85.10
44111;DHT22;29774;52.664;5.074;2022-11-12T13:54:30;11.40;85.20
44111;DHT22;29774;52.664;5.074;2022-11-12T13:57:12;11.50;84.70
44111;DHT22;29774;52.664;5.074;2022-11-12T13:59:38;11.50;84.90
44111;DHT22;29774;52.664;5.074;2022-11-12T14:02:08;11.50;85.10
44111;DHT22;29774;52.664;5.074;2022-11-12T14:04:39;11.50;85.20
44111;DHT22;29774;52.664;5.074;2022-11-12T14:07:32;11.40;84.60
44111;DHT22;29774;52.664;5.074;2022-11-12T14:13:09;11.40;84.90
44111;DHT22;29774;52.664;5.074;2022-11-12T14:16:13;11.40;85.20
44111;DHT22;29774;52.664;5.074;2022-11-12T14:21:40;11.40;85.50
44111;DHT22;29774;52.664;5.074;2022-11-12T14:24:09;11.30;84.60
44111;DHT22;29774;52.664;5.074;2022-11-12T14:26:39;11.30;85.50
44111;DHT22;29774;52.664;5.074;2022-11-12T14:29:04;11.20;85.90
44111;DHT22;29774;52.664;5.074;2022-11-12T14:31:30;11.20;85.90
44111;DHT22;29774;52.664;5.074;2022-11-12T14:33:56;11.20;85.90
44111;DHT22;29774;52.664;5.074;2022-11-12T14:36:22;11.20;84.70
44111;DHT22;29774;52.664;5.074;2022-11-12T14:38:54;11.20;84.70
44111;DHT22;29774;52.664;5.074;2022-11-12T14:41:25;11.10;84.70
44111;DHT22;29774;52.664;5.074;2022-11-12T14:43:57;11.00;84.90
44111;DHT22;29774;52.664;5.074;2022-11-12T14:46:45;11.00;84.90
44111;DHT22;29774;52.664;5.074;2022-11-12T14:51:53;10.90;85.60
44111;DHT22;29774;52.664;5.074;2022-11-12T14:54:29;10.90;85.60
44111;DHT22;29774;52.664;5.074;2022-11-12T14:56:56;10.80;85.70
44111;DHT22;29774;52.664;5.074;2022-11-12T14:59:24;10.90;85.90
44111;DHT22;29774;52.664;5.074;2022-11-12T15:02:08;10.90;85.60
44111;DHT22;29774;52.664;5.074;2022-11-12T15:04:42;10.80;85.60
44111;DHT22;29774;52.664;5.074;2022-11-12T15:07:31;10.80;86.10
44111;DHT22;29774;52.664;5.074;2022-11-12T15:09:57;10.90;86.10
44111;DHT22;29774;52.664;5.074;2022-11-12T15:12:31;10.80;86.40
44111;DHT22;29774;52.664;5.074;2022-11-12T15:15:16;10.80;86.50
44111;DHT22;29774;52.664;5.074;2022-11-12T15:17:42;10.70;87.00
44111;DHT22;29774;52.664;5.074;2022-11-12T15:20:15;10.60;87.20
44111;DHT22;29774;52.664;5.074;2022-11-12T15:22:49;10.60;87.60
44111;DHT22;29774;52.664;5.074;2022-11-12T15:27:49;10.50;87.80
44111;DHT22;29774;52.664;5.074;2022-11-12T15:30:31;10.50;87.80
44111;DHT22;29774;52.664;5.074;2022-11-12T15:33:16;10.40;87.80
44111;DHT22;29774;52.664;5.074;2022-11-12T15:35:43;10.40;87.80
44111;DHT22;29774;52.664;5.074;2022-11-12T15:38:28;10.30;88.10
44111;DHT22;29774;52.664;5.074;2022-11-12T15:40:56;10.30;88.30
44111;DHT22;29774;52.664;5.074;2022-11-12T15:43:24;10.20;88.00
44111;DHT22;29774;52.664;5.074;2022-11-12T15:45:52;10.20;88.40
44111;DHT22;29774;52.664;5.074;2022-11-12T15:48:18;10.20;88.70
44111;DHT22;29774;52.664;5.074;2022-11-12T15:50:44;10.10;88.70
44111;DHT22;29774;52.664;5.074;2022-11-12T15:53:10;10.00;88.90
44111;DHT22;29774;52.664;5.074;2022-11-12T15:55:36;10.00;89.00
44111;DHT22;29774;52.664;5.074;2022-11-12T15:58:04;9.90;89.40
44111;DHT22;29774;52.664;5.074;2022-11-12T16:03:53;9.90;89.20
44111;DHT22;29774;52.664;5.074;2022-11-12T16:06:18;9.80;89.70
44111;DHT22;29774;52.664;5.074;2022-11-12T16:08:44;9.80;89.90
44111;DHT22;29774;52.664;5.074;2022-11-12T16:11:11;9.80;90.20
44111;DHT22;29774;52.664;5.074;2022-11-12T16:13:57;9.90;90.00
44111;DHT22;29774;52.664;5.074;2022-11-12T16:16:22;9.80;89.80
44111;DHT22;29774;52.664;5.074;2022-11-12T16:18:48;9.70;90.00
44111;DHT22;29774;52.664;5.074;2022-11-12T16:21:14;9.60;90.10
44111;DHT22;29774;52.664;5.074;2022-11-12T16:23:39;9.50;90.50
44111;DHT22;29774;52.664;5.074;2022-11-12T16:26:07;9.70;90.80
44111;DHT22;29774;52.664;5.074;2022-11-12T16:28:34;9.60;90.40
44111;DHT22;29774;52.664;5.074;2022-11-12T16:30:59;9.50;90.70
44111;DHT22;29774;52.664;5.074;2022-11-12T16:33:25;9.50;91.10
44111;DHT22;29774;52.664;5.074;2022-11-12T16:35:50;9.50;91.20
44111;DHT22;29774;52.664;5.074;2022-11-12T16:38:16;9.50;91.30
44111;DHT22;29774;52.664;5.074;2022-11-12T16:40:43;9.30;90.40
44111;DHT22;29774;52.664;5.074;2022-11-12T16:43:09;9.10;91.20
44111;DHT22;29774;52.664;5.074;2022-11-12T16:45:38;9.70;92.10
44111;DHT22;29774;52.664;5.074;2022-11-12T16:48:18;9.30;90.10
44111;DHT22;29774;52.664;5.074;2022-11-12T16:50:43;9.20;90.60
44111;DHT22;29774;52.664;5.074;2022-11-12T16:53:09;8.90;90.90
44111;DHT22;29774;52.664;5.074;2022-11-12T16:55:34;8.90;91.70
44111;DHT22;29774;52.664;5.074;2022-11-12T16:58:00;9.00;92.10
44111;DHT22;29774;52.664;5.074;2022-11-12T17:00:26;9.10;92.30
44111;DHT22;29774;52.664;5.074;2022-11-12T17:02:52;9.10;92.20
44111;DHT22;29774;52.664;5.074;2022-11-12T17:05:20;9.20;92.40
44111;DHT22;29774;52.664;5.074;2022-11-12T17:07:47;9.00;92.00
44111;DHT22;29774;52.664;5.074;2022-11-12T17:10:13;8.90;92.20
44111;DHT22;29774;52.664;5.074;2022-11-12T17:12:39;9.00;92.70
44111;DHT22;29774;52.664;5.074;2022-11-12T17:15:05;8.70;92.20
44111;DHT22;29774;52.664;5.074;2022-11-12T17:17:31;8.70;92.40
44111;DHT22;29774;52.664;5.074;2022-11-12T17:19:57;9.10;93.20
44111;DHT22;29774;52.664;5.074;2022-11-12T17:22:23;9.00;92.70
44111;DHT22;29774;52.664;5.074;2022-11-12T17:24:48;9.20;92.90
44111;DHT22;29774;52.664;5.074;2022-11-12T17:27:14;9.20;92.70
44111;DHT22;29774;52.664;5.074;2022-11-12T17:29:40;9.10;92.80
44111;DHT22;29774;52.664;5.074;2022-11-12T17:32:05;9.10;92.70
44111;DHT22;29774;52.664;5.074;2022-11-12T17:34:31;9.10;92.50
44111;DHT22;29774;52.664;5.074;2022-11-12T17:36:56;8.80;91.80
44111;DHT22;29774;52.664;5.074;2022-11-12T17:39:22;8.70;91.90
44111;DHT22;29774;52.664;5.074;2022-11-12T17:41:48;8.70;92.40